createdAt,value
2018-02-07T00:00:23.989Z,79.92
2018-02-07T00:01:24.027Z,79.59
2018-02-07T00:02:23.976Z,80.41
2018-02-07T00:03:23.971Z,80.37
2018-02-07T00:04:23.886Z,80.05
2018-02-07T00:05:23.883Z,80.1
2018-02-07T00:06:23.862Z,79.83
2018-02-07T00:07:23.860Z,80.15
2018-02-07T00:08:23.860Z,80.26
2018-02-07T00:09:23.865Z,79.88
2018-02-07T00:10:23.845Z,80.16
2018-02-07T00:11:23.846Z,80.04
2018-02-07T00:12:23.878Z,79.72
2018-02-07T00:13:23.858Z,80.17
2018-02-07T00:14:23.877Z,80.3
2018-02-07T00:15:23.869Z,80.22
2018-02-07T00:16:23.842Z,80.14
2018-02-07T00:17:23.916Z,80.21
2018-02-07T00:18:23.869Z,80.1
2018-02-07T00:19:23.862Z,79.91
2018-02-07T00:20:23.838Z,80.53
2018-02-07T00:21:23.841Z,80.7
2018-02-07T00:22:23.840Z,80.44
2018-02-07T00:23:23.858Z,80.36
2018-02-07T00:24:23.885Z,80.15
2018-02-07T00:25:23.850Z,80.23
2018-02-07T00:26:23.847Z,79.99
2018-02-07T00:27:23.874Z,80.49
2018-02-07T00:28:23.846Z,80.66
2018-02-07T00:29:23.888Z,80.79
2018-02-07T00:30:23.885Z,80.22
2018-02-07T00:31:23.843Z,80.45
2018-02-07T00:32:23.887Z,80.24
2018-02-07T00:33:23.870Z,80.55
2018-02-07T00:34:23.880Z,79.92
2018-02-07T00:35:24.747Z,79.93
2018-02-07T00:36:24.753Z,80.16
2018-02-07T00:37:24.763Z,80.5
2018-02-07T00:38:24.779Z,80.54
2018-02-07T00:39:24.759Z,80.53
2018-02-07T00:40:24.775Z,80.47
2018-02-07T00:41:24.748Z,80.57
2018-02-07T00:42:24.755Z,80.04
2018-02-07T00:43:24.761Z,80.78
2018-02-07T00:44:24.776Z,80.32
2018-02-07T00:45:24.772Z,80.21
2018-02-07T00:46:24.767Z,80.31
2018-02-07T00:47:24.762Z,80.54
2018-02-07T00:48:24.779Z,80.39
2018-02-07T00:50:26.287Z,80.55
2018-02-07T00:51:24.768Z,80.99
2018-02-07T00:52:24.770Z,80.82
2018-02-07T00:53:24.775Z,80.67
2018-02-07T00:54:24.770Z,80.42
2018-02-07T00:55:24.775Z,80.97
2018-02-07T00:56:24.749Z,80.72
2018-02-07T00:57:24.772Z,80.52
2018-02-07T00:58:24.771Z,80.54
2018-02-07T00:59:24.779Z,80.86
2018-02-07T01:00:24.782Z,80.88
2018-02-07T01:01:24.789Z,81.17
2018-02-07T01:02:24.782Z,80.98
2018-02-07T01:03:24.773Z,80.68
2018-02-07T01:04:24.750Z,81.15
2018-02-07T01:05:24.590Z,80.86
2018-02-07T01:06:24.593Z,80.24
2018-02-07T01:07:24.611Z,80.83
2018-02-07T01:08:24.598Z,81.1
2018-02-07T01:09:24.607Z,80.98
2018-02-07T01:10:24.596Z,80.93
2018-02-07T01:11:24.605Z,80.79
2018-02-07T01:12:24.576Z,80.87
2018-02-07T01:13:24.584Z,81
2018-02-07T01:14:24.579Z,81.25
2018-02-07T01:15:24.589Z,81.28
2018-02-07T01:16:24.601Z,81.38
2018-02-07T01:17:24.612Z,81.27
2018-02-07T01:18:24.586Z,81.4
2018-02-07T01:19:24.587Z,81.37
2018-02-07T01:20:24.658Z,81.35
2018-02-07T01:21:24.591Z,81.13
2018-02-07T01:22:24.586Z,81.14
2018-02-07T01:23:24.614Z,81.39
2018-02-07T01:24:24.622Z,81.52
2018-02-07T01:25:24.615Z,81.29
2018-02-07T01:26:24.599Z,81.22
2018-02-07T01:27:24.597Z,81.38
2018-02-07T01:28:24.622Z,81.48
2018-02-07T01:29:24.624Z,81
2018-02-07T01:30:24.650Z,80.96
2018-02-07T01:31:24.599Z,80.92
2018-02-07T01:32:24.606Z,81.03
2018-02-07T01:33:24.596Z,80.93
2018-02-07T01:34:24.603Z,80.83
2018-02-07T01:35:24.637Z,81.05
2018-02-07T01:36:24.499Z,81.1
2018-02-07T01:37:24.494Z,81.1
2018-02-07T01:38:24.490Z,81.09
2018-02-07T01:39:24.459Z,81.04
2018-02-07T01:40:24.822Z,80.96
2018-02-07T01:41:24.536Z,81.01
2018-02-07T01:42:24.502Z,80.96
2018-02-07T01:43:24.473Z,80.92
2018-02-07T01:44:24.474Z,80.84
2018-02-07T01:45:24.508Z,80.55
2018-02-07T01:46:24.495Z,80.51
2018-02-07T01:47:24.486Z,80.39
2018-02-07T01:48:24.488Z,80.4
2018-02-07T01:49:24.491Z,80.59
2018-02-07T01:50:24.484Z,80.5
2018-02-07T01:51:24.479Z,80.46
2018-02-07T01:52:24.495Z,80.46
2018-02-07T01:53:24.502Z,80.34
2018-02-07T01:54:24.490Z,80.31
2018-02-07T01:55:24.472Z,80.37
2018-02-07T01:56:24.455Z,80.41
2018-02-07T01:57:24.475Z,80.61
2018-02-07T01:58:24.484Z,80.6
2018-02-07T01:59:24.489Z,80.58
2018-02-07T02:00:24.497Z,80.59
2018-02-07T02:01:24.456Z,80.62
2018-02-07T02:02:24.474Z,80.72
2018-02-07T02:03:24.507Z,80.69
2018-02-07T02:04:24.498Z,80.6
2018-02-07T02:05:24.508Z,80.65
2018-02-07T02:06:24.505Z,80.72
2018-02-07T02:07:24.265Z,80.72
2018-02-07T02:08:24.257Z,80.65
2018-02-07T02:09:24.264Z,80.95
2018-02-07T02:10:24.258Z,80.92
2018-02-07T02:11:24.238Z,80.84
2018-02-07T02:12:24.245Z,81
2018-02-07T02:13:24.235Z,80.99
2018-02-07T02:14:24.243Z,80.54
2018-02-07T02:15:24.228Z,80.35
2018-02-07T02:16:24.365Z,80.29
2018-02-07T02:17:24.243Z,80.64
2018-02-07T02:18:24.280Z,80.47
2018-02-07T02:19:24.248Z,80.4
2018-02-07T02:20:24.252Z,80.08
2018-02-07T02:21:24.273Z,80.2
2018-02-07T02:22:24.223Z,80.22
2018-02-07T02:23:24.241Z,80.7
2018-02-07T02:24:24.251Z,80.61
2018-02-07T02:25:24.267Z,80.55
2018-02-07T02:26:24.231Z,80.8
2018-02-07T02:27:24.237Z,80.68
2018-02-07T02:28:24.255Z,80.62
2018-02-07T02:29:24.293Z,80.39
2018-02-07T02:30:24.222Z,80.51
2018-02-07T02:31:24.254Z,80.48
2018-02-07T02:32:24.283Z,80.32
2018-02-07T02:33:24.240Z,80.23
2018-02-07T02:34:24.296Z,80.48
2018-02-07T02:35:24.232Z,80.32
2018-02-07T02:36:24.231Z,80.35
2018-02-07T02:37:24.306Z,80.43
2018-02-07T02:38:24.200Z,80.51
2018-02-07T02:39:24.221Z,80.65
2018-02-07T02:40:24.199Z,81.03
2018-02-07T02:41:24.220Z,80.8
2018-02-07T02:42:24.231Z,80.93
2018-02-07T02:43:24.203Z,80.74
2018-02-07T02:44:24.196Z,80.54
2018-02-07T02:45:24.226Z,80.83
2018-02-07T02:46:24.208Z,80.72
2018-02-07T02:47:24.239Z,80.58
2018-02-07T02:48:24.198Z,80.41
2018-02-07T02:49:24.242Z,80.51
2018-02-07T02:50:24.220Z,80.41
2018-02-07T02:51:24.219Z,80.36
2018-02-07T02:52:24.339Z,81.07
2018-02-07T02:53:24.241Z,80.9
2018-02-07T02:54:24.234Z,81.1
2018-02-07T02:55:24.211Z,81.29
2018-02-07T02:56:24.211Z,81.36
2018-02-07T02:57:24.219Z,80.88
2018-02-07T02:58:24.217Z,80.92
2018-02-07T02:59:24.232Z,81.13
2018-02-07T03:00:24.218Z,80.96
2018-02-07T03:01:24.199Z,80.8
2018-02-07T03:02:24.224Z,81.21
2018-02-07T03:03:24.212Z,81.2
2018-02-07T03:04:24.217Z,80.8
2018-02-07T03:05:24.211Z,80.89
2018-02-07T03:06:24.219Z,81.77
2018-02-07T03:07:24.235Z,81.27
2018-02-07T03:08:24.208Z,81.33
2018-02-07T03:09:24.031Z,81.28
2018-02-07T03:10:24.029Z,81.32
2018-02-07T03:11:24.024Z,81.25
2018-02-07T03:12:24.016Z,80.93
2018-02-07T03:13:24.047Z,81.04
2018-02-07T03:14:24.016Z,81.12
2018-02-07T03:15:24.038Z,81.31
2018-02-07T03:16:24.034Z,81.23
2018-02-07T03:17:24.018Z,81.58
2018-02-07T03:18:24.128Z,81.5
2018-02-07T03:19:24.019Z,81.06
2018-02-07T03:20:24.029Z,81.16
2018-02-07T03:21:24.037Z,81.91
2018-02-07T03:22:24.020Z,81.92
2018-02-07T03:23:24.049Z,82.05
2018-02-07T03:24:24.060Z,82.24
2018-02-07T03:25:24.049Z,81.91
2018-02-07T03:26:24.046Z,82
2018-02-07T03:27:24.042Z,81.53
2018-02-07T03:28:24.021Z,81.72
2018-02-07T03:29:24.093Z,81.58
2018-02-07T03:30:24.051Z,81.49
2018-02-07T03:31:24.016Z,81.1
2018-02-07T03:32:24.020Z,81.59
2018-02-07T03:33:24.026Z,81.45
2018-02-07T03:34:24.021Z,81.47
2018-02-07T03:35:24.028Z,81.66
2018-02-07T03:36:24.043Z,81.84
2018-02-07T03:37:24.124Z,81.9
2018-02-07T03:38:24.069Z,81.96
2018-02-07T03:39:24.020Z,81.91
2018-02-07T03:40:24.775Z,81.79
2018-02-07T03:41:25.289Z,81.72
2018-02-07T03:42:24.777Z,81.68
2018-02-07T03:43:25.129Z,81.66
2018-02-07T03:44:24.806Z,81.49
2018-02-07T03:45:24.789Z,81.8
2018-02-07T03:46:24.787Z,81.88
2018-02-07T03:47:24.803Z,82.04
2018-02-07T03:48:24.800Z,81.76
2018-02-07T03:49:24.779Z,81.72
2018-02-07T03:50:24.786Z,81.85
2018-02-07T03:51:24.810Z,81.71
2018-02-07T03:52:24.796Z,81.85
2018-02-07T03:53:24.764Z,82
2018-02-07T03:54:24.798Z,81.83
2018-02-07T03:55:24.804Z,81.77
2018-02-07T03:56:24.799Z,81.81
2018-02-07T03:57:24.805Z,81.87
2018-02-07T03:58:24.805Z,81.97
2018-02-07T03:59:24.804Z,81.52
2018-02-07T04:00:24.791Z,81.54
2018-02-07T04:01:24.814Z,81.54
2018-02-07T04:02:24.803Z,82.1
2018-02-07T04:03:24.832Z,81.73
2018-02-07T04:04:24.808Z,81.89
2018-02-07T04:05:24.815Z,82.04
2018-02-07T04:06:24.777Z,81.85
2018-02-07T04:07:24.818Z,82.3
2018-02-07T04:08:24.783Z,82.2
2018-02-07T04:09:24.856Z,81.98
2018-02-07T04:11:25.340Z,81.66
2018-02-07T04:12:24.824Z,81.9
2018-02-07T04:13:24.829Z,82.1
2018-02-07T04:14:25.154Z,81.6
2018-02-07T04:15:24.791Z,81.61
2018-02-07T04:16:24.840Z,81.9
2018-02-07T04:17:24.825Z,81.92
2018-02-07T04:18:24.822Z,81.83
2018-02-07T04:19:24.817Z,81.79
2018-02-07T04:20:24.861Z,81.37
2018-02-07T04:21:24.822Z,82.51
2018-02-07T04:22:24.817Z,82.3
2018-02-07T04:23:24.825Z,82.18
2018-02-07T04:24:24.871Z,82.16
2018-02-07T04:25:24.818Z,81.97
2018-02-07T04:26:24.849Z,82.29
2018-02-07T04:27:24.799Z,82.5
2018-02-07T04:28:24.860Z,82.47
2018-02-07T04:29:24.802Z,82.24
2018-02-07T04:30:24.856Z,83.1
2018-02-07T04:31:24.813Z,82.97
2018-02-07T04:32:24.832Z,82.63
2018-02-07T04:33:24.827Z,82.91
2018-02-07T04:34:24.826Z,83.05
2018-02-07T04:35:24.849Z,82.52
2018-02-07T04:36:24.841Z,83.09
2018-02-07T04:37:24.848Z,82.97
2018-02-07T04:38:24.839Z,82.85
2018-02-07T04:39:24.809Z,82.81
2018-02-07T04:40:24.835Z,82.41
2018-02-07T04:41:24.567Z,82.89
2018-02-07T04:42:24.552Z,83
2018-02-07T04:43:24.578Z,82.8
2018-02-07T04:44:24.571Z,82.73
2018-02-07T04:45:24.592Z,82.43
2018-02-07T04:46:24.608Z,82.65
2018-02-07T04:47:24.549Z,82.87
2018-02-07T04:48:24.550Z,82.51
2018-02-07T04:49:24.546Z,82.62
2018-02-07T04:50:24.574Z,82.64
2018-02-07T04:51:24.570Z,82.99
2018-02-07T04:52:24.557Z,83.01
2018-02-07T04:53:24.548Z,82.74
2018-02-07T04:54:24.542Z,82.59
2018-02-07T04:55:24.566Z,82.19
2018-02-07T04:56:24.596Z,82.48
2018-02-07T04:57:24.542Z,82.18
2018-02-07T04:58:24.595Z,82.32
2018-02-07T04:59:24.585Z,82.44
2018-02-07T05:00:24.551Z,82.37
2018-02-07T05:01:24.563Z,82.52
2018-02-07T05:02:24.543Z,82.35
2018-02-07T05:03:25.378Z,82.37
2018-02-07T05:04:24.579Z,82.29
2018-02-07T05:05:24.554Z,82.32
2018-02-07T05:06:24.570Z,82.25
2018-02-07T05:07:24.548Z,82.35
2018-02-07T05:08:24.564Z,82.44
2018-02-07T05:09:24.565Z,82.67
2018-02-07T05:10:24.572Z,82.59
2018-02-07T05:11:24.550Z,82.54
2018-02-07T05:12:24.273Z,82.58
2018-02-07T05:13:24.287Z,82.62
2018-02-07T05:14:24.330Z,82.64
2018-02-07T05:15:24.295Z,82.56
2018-02-07T05:16:24.313Z,82.39
2018-02-07T05:17:24.320Z,82.44
2018-02-07T05:18:24.312Z,82.71
2018-02-07T05:19:24.355Z,82.91
2018-02-07T05:20:24.299Z,82.83
2018-02-07T05:21:24.330Z,82.79
2018-02-07T05:22:24.313Z,82.7
2018-02-07T05:23:24.307Z,82.45
2018-02-07T05:24:24.328Z,82.58
2018-02-07T05:25:24.333Z,82.37
2018-02-07T05:26:24.294Z,82.46
2018-02-07T05:27:24.296Z,82.78
2018-02-07T05:28:24.295Z,82.56
2018-02-07T05:29:24.304Z,82.6
2018-02-07T05:30:24.299Z,82.67
2018-02-07T05:31:24.296Z,82.63
2018-02-07T05:32:24.299Z,82.56
2018-02-07T05:33:24.332Z,82.64
2018-02-07T05:34:24.325Z,82.47
2018-02-07T05:35:24.321Z,82.25
2018-02-07T05:36:24.343Z,82.66
2018-02-07T05:37:24.317Z,82.65
2018-02-07T05:38:24.298Z,82.72
2018-02-07T05:39:24.292Z,82.46
2018-02-07T05:40:24.300Z,82.5
2018-02-07T05:41:24.786Z,82.3
2018-02-07T05:42:24.621Z,82.54
2018-02-07T05:43:24.649Z,82.58
2018-02-07T05:44:24.606Z,82.61
2018-02-07T05:45:24.629Z,82.45
2018-02-07T05:46:24.602Z,82.44
2018-02-07T05:47:24.606Z,82.63
2018-02-07T05:48:24.628Z,82.63
2018-02-07T05:49:24.640Z,82.66
2018-02-07T05:50:24.633Z,82.69
2018-02-07T05:51:24.628Z,82.32
2018-02-07T05:52:24.625Z,82.5
2018-02-07T05:53:24.631Z,82.44
2018-02-07T05:54:24.613Z,82.33
2018-02-07T05:55:24.687Z,82.42
2018-02-07T05:56:24.678Z,82.24
2018-02-07T05:57:24.622Z,82.13
2018-02-07T05:58:24.611Z,82.34
2018-02-07T05:59:24.646Z,82.21
2018-02-07T06:00:24.625Z,82.36
2018-02-07T06:01:24.619Z,82.26
2018-02-07T06:02:24.641Z,82.16
2018-02-07T06:03:24.625Z,81.99
2018-02-07T06:04:24.638Z,81.94
2018-02-07T06:05:24.636Z,82.29
2018-02-07T06:06:24.620Z,82.18
2018-02-07T06:07:24.654Z,82.26
2018-02-07T06:08:24.644Z,82.32
2018-02-07T06:09:24.679Z,82.13
2018-02-07T06:10:24.615Z,82.36
2018-02-07T06:11:24.635Z,82.33
2018-02-07T06:12:24.602Z,82.14
2018-02-07T06:13:24.308Z,82.33
2018-02-07T06:14:24.315Z,82.51
2018-02-07T06:15:24.286Z,82.3
2018-02-07T06:16:24.323Z,82.06
2018-02-07T06:17:24.564Z,81.95
2018-02-07T06:18:24.716Z,82.07
2018-02-07T06:19:24.304Z,82.42
2018-02-07T06:20:24.304Z,82.6
2018-02-07T06:21:24.283Z,82.19
2018-02-07T06:22:24.316Z,81.9
2018-02-07T06:23:24.308Z,82.04
2018-02-07T06:24:24.338Z,82.11
2018-02-07T06:25:24.287Z,82.3
2018-02-07T06:26:24.327Z,82.79
2018-02-07T06:27:24.299Z,82.54
2018-02-07T06:28:24.315Z,82.51
2018-02-07T06:29:24.298Z,82.5
2018-02-07T06:30:24.319Z,82.53
2018-02-07T06:31:24.280Z,82.47
2018-02-07T06:32:24.289Z,82.49
2018-02-07T06:33:24.308Z,82.64
2018-02-07T06:34:24.312Z,82.92
2018-02-07T06:35:24.302Z,83.12
2018-02-07T06:36:24.294Z,82.74
2018-02-07T06:37:24.376Z,82.83
2018-02-07T06:38:24.326Z,82.84
2018-02-07T06:39:24.318Z,82.82
2018-02-07T06:40:24.311Z,82.91
2018-02-07T06:41:24.310Z,82.82
2018-02-07T06:42:24.298Z,83.03
2018-02-07T06:43:24.282Z,83.08
2018-02-07T06:44:24.090Z,83.17
2018-02-07T06:45:24.105Z,82.8
2018-02-07T06:46:24.100Z,82.79
2018-02-07T06:47:24.083Z,82.66
2018-02-07T06:48:24.088Z,82.69
2018-02-07T06:49:24.126Z,82.25
2018-02-07T06:50:25.027Z,82.65
2018-02-07T06:51:25.052Z,82.33
2018-02-07T06:52:24.234Z,82.39
2018-02-07T06:53:24.444Z,83.15
2018-02-07T06:54:24.069Z,83.08
2018-02-07T06:55:24.180Z,83.44
2018-02-07T06:56:24.070Z,83.92
2018-02-07T06:57:24.060Z,85.57
2018-02-07T06:58:24.075Z,85.83
2018-02-07T06:59:24.118Z,83.71
2018-02-07T07:00:24.057Z,83.31
2018-02-07T07:01:24.069Z,83.01
2018-02-07T07:02:24.075Z,82.64
2018-02-07T07:03:24.091Z,82.47
2018-02-07T07:04:24.073Z,82.62
2018-02-07T07:05:24.089Z,83.05
2018-02-07T07:06:24.102Z,83.09
2018-02-07T07:07:24.065Z,83.18
2018-02-07T07:08:24.069Z,83.06
2018-02-07T07:09:24.107Z,83.13
2018-02-07T07:10:24.057Z,83.12
2018-02-07T07:11:24.067Z,83.16
2018-02-07T07:12:24.108Z,83.34
2018-02-07T07:13:24.107Z,83.33
2018-02-07T07:14:24.092Z,83.23
2018-02-07T07:15:24.071Z,83.03
2018-02-07T07:16:24.096Z,82.96
2018-02-07T07:17:24.119Z,83.37
2018-02-07T07:18:24.073Z,83.44
2018-02-07T07:19:24.087Z,83.09
2018-02-07T07:20:24.081Z,83.52
2018-02-07T07:21:24.059Z,83.62
2018-02-07T07:22:24.075Z,83.3
2018-02-07T07:23:24.083Z,83.25
2018-02-07T07:24:24.068Z,83.39
2018-02-07T07:25:24.074Z,83.38
2018-02-07T07:26:24.082Z,82.97
2018-02-07T07:27:24.085Z,83.07
2018-02-07T07:28:24.100Z,83.48
2018-02-07T07:29:24.099Z,83.33
2018-02-07T07:30:24.088Z,83.04
2018-02-07T07:31:24.071Z,82.63
2018-02-07T07:32:24.203Z,83.09
2018-02-07T07:33:24.051Z,83.24
2018-02-07T07:34:24.102Z,83.24
2018-02-07T07:35:24.078Z,83.27
2018-02-07T07:36:24.062Z,83.46
2018-02-07T07:37:24.076Z,83.45
2018-02-07T07:38:24.097Z,83.65
2018-02-07T07:39:24.164Z,83.7
2018-02-07T07:40:24.081Z,83.5
2018-02-07T07:41:24.091Z,83.93
2018-02-07T07:42:24.106Z,83.54
2018-02-07T07:43:24.085Z,83.68
2018-02-07T07:44:24.082Z,83.52
2018-02-07T07:45:24.111Z,83.3
2018-02-07T07:46:24.117Z,83.34
2018-02-07T07:47:24.117Z,83.01
2018-02-07T07:48:24.146Z,83.95
2018-02-07T07:49:24.137Z,84.03
2018-02-07T07:50:24.198Z,83.97
2018-02-07T07:51:24.087Z,84.16
2018-02-07T07:52:24.105Z,84.12
2018-02-07T07:53:24.100Z,84.43
2018-02-07T07:54:24.127Z,84.62
2018-02-07T07:55:24.122Z,84.26
2018-02-07T07:56:24.120Z,84.23
2018-02-07T07:57:24.090Z,84.41
2018-02-07T07:58:24.100Z,84.33
2018-02-07T07:59:24.146Z,84.04
2018-02-07T08:00:24.127Z,84.2
2018-02-07T08:01:24.136Z,84.25
2018-02-07T08:02:24.130Z,84.08
2018-02-07T08:03:24.128Z,83.85
2018-02-07T08:04:24.092Z,84.27
2018-02-07T08:05:24.112Z,84.08
2018-02-07T08:06:24.087Z,84.57
2018-02-07T08:07:24.313Z,84.49
2018-02-07T08:08:24.127Z,84.6
2018-02-07T08:09:24.143Z,84.74
2018-02-07T08:10:24.121Z,84.56
2018-02-07T08:11:24.138Z,84.47
2018-02-07T08:12:24.161Z,84.43
2018-02-07T08:13:24.086Z,84.17
2018-02-07T08:14:24.128Z,84.17
2018-02-07T08:15:24.118Z,83.9
2018-02-07T08:16:24.139Z,83.95
2018-02-07T08:17:24.197Z,84.35
2018-02-07T08:18:24.139Z,84.51
2018-02-07T08:19:24.208Z,84.3
2018-02-07T08:20:24.163Z,84.13
2018-02-07T08:21:24.143Z,84.48
2018-02-07T08:22:24.167Z,84.57
2018-02-07T08:23:24.180Z,83.83
2018-02-07T08:24:24.240Z,84.82
2018-02-07T08:25:24.192Z,83.94
2018-02-07T08:26:24.131Z,84.64
2018-02-07T08:27:24.173Z,84.33
2018-02-07T08:28:24.164Z,84.87
2018-02-07T08:29:24.201Z,85.24
2018-02-07T08:30:24.158Z,85.46
2018-02-07T08:31:24.145Z,85.4
2018-02-07T08:32:24.139Z,85.46
2018-02-07T08:33:24.146Z,85.5
2018-02-07T08:34:24.187Z,85.34
2018-02-07T08:35:24.138Z,84.97
2018-02-07T08:36:24.148Z,84.64
2018-02-07T08:37:24.142Z,84.73
2018-02-07T08:38:24.147Z,85.32
2018-02-07T08:39:24.179Z,85.52
2018-02-07T08:40:24.201Z,85.55
2018-02-07T08:41:24.173Z,85.37
2018-02-07T08:42:24.174Z,84.76
2018-02-07T08:43:24.252Z,85.25
2018-02-07T08:44:24.164Z,86.01
2018-02-07T08:45:24.179Z,86.06
2018-02-07T08:46:24.161Z,85.12
2018-02-07T08:47:24.154Z,86.32
2018-02-07T08:48:24.201Z,85.96
2018-02-07T08:49:24.158Z,86.41
2018-02-07T08:50:24.149Z,85.92
2018-02-07T08:51:24.146Z,85.95
2018-02-07T08:52:24.143Z,86.29
2018-02-07T08:53:24.158Z,85.29
2018-02-07T08:54:24.163Z,86.05
2018-02-07T08:55:24.199Z,86.16
2018-02-07T08:56:24.184Z,86.6
2018-02-07T08:57:24.177Z,86.37
2018-02-07T08:58:24.172Z,86.04
2018-02-07T08:59:24.201Z,86.86
2018-02-07T09:00:24.481Z,86.46
2018-02-07T09:01:24.134Z,86.14
2018-02-07T09:02:24.172Z,86.04
2018-02-07T09:03:24.168Z,86.15
2018-02-07T09:04:24.168Z,85.84
2018-02-07T09:05:24.203Z,85.41
2018-02-07T09:06:24.143Z,86.73
2018-02-07T09:07:24.146Z,86.64
2018-02-07T09:08:24.153Z,86.94
2018-02-07T09:09:24.190Z,86.63
2018-02-07T09:10:24.176Z,86.49
2018-02-07T09:11:24.173Z,86.9
2018-02-07T09:12:24.142Z,86.33
2018-02-07T09:13:24.138Z,86.68
2018-02-07T09:14:24.184Z,85.83
2018-02-07T09:15:24.181Z,86.84
2018-02-07T09:16:24.194Z,86.55
2018-02-07T09:17:24.076Z,86.71
2018-02-07T09:18:24.091Z,87.11
2018-02-07T09:19:24.115Z,87.35
2018-02-07T09:20:24.104Z,87.8
2018-02-07T09:21:24.178Z,88.01
2018-02-07T09:22:24.411Z,88.36
2018-02-07T09:23:24.112Z,88.19
2018-02-07T09:24:24.102Z,87.32
2018-02-07T09:25:24.084Z,87.17
2018-02-07T09:26:24.070Z,86.79
2018-02-07T09:27:24.085Z,87.03
2018-02-07T09:28:24.094Z,86.92
2018-02-07T09:29:24.098Z,86.9
2018-02-07T09:30:24.082Z,87.1
2018-02-07T09:31:24.098Z,86.87
2018-02-07T09:32:24.079Z,87.12
2018-02-07T09:33:24.077Z,87.33
2018-02-07T09:34:24.109Z,86.74
2018-02-07T09:35:24.098Z,87.35
2018-02-07T09:36:24.690Z,86.66
2018-02-07T09:37:24.064Z,86.58
2018-02-07T09:38:24.068Z,87.01
2018-02-07T09:39:24.110Z,86.83
2018-02-07T09:40:24.081Z,86.23
2018-02-07T09:41:24.088Z,86.1
2018-02-07T09:42:24.099Z,86.01
2018-02-07T09:43:24.153Z,86.09
2018-02-07T09:44:24.052Z,85.8
2018-02-07T09:45:24.079Z,85.97
2018-02-07T09:46:24.074Z,85.44
2018-02-07T09:47:24.089Z,85.92
2018-02-07T09:48:24.171Z,85.72
2018-02-07T09:49:24.053Z,85.13
2018-02-07T09:50:24.050Z,85.86
2018-02-07T09:51:24.050Z,85.91
2018-02-07T09:52:24.023Z,85.81
2018-02-07T09:53:24.063Z,85.78
2018-02-07T09:54:24.047Z,85.53
2018-02-07T09:55:24.062Z,85.18
2018-02-07T09:56:24.049Z,85.3
2018-02-07T09:57:24.070Z,85.56
2018-02-07T09:58:24.057Z,85.74
2018-02-07T09:59:24.096Z,86.35
2018-02-07T10:00:24.058Z,86.95
2018-02-07T10:01:24.054Z,87.21
2018-02-07T10:02:24.046Z,87.25
2018-02-07T10:03:24.030Z,87.5
2018-02-07T10:04:24.049Z,87.45
2018-02-07T10:05:24.053Z,87.62
2018-02-07T10:06:24.055Z,87.89
2018-02-07T10:07:24.040Z,87.77
2018-02-07T10:08:24.034Z,88.24
2018-02-07T10:09:24.084Z,88.05
2018-02-07T10:10:24.035Z,88.62
2018-02-07T10:11:24.033Z,88.15
2018-02-07T10:12:24.073Z,87.78
2018-02-07T10:13:24.045Z,88.09
2018-02-07T10:14:24.084Z,87.18
2018-02-07T10:15:24.075Z,87.3
2018-02-07T10:16:24.056Z,87.77
2018-02-07T10:17:24.073Z,87.42
2018-02-07T10:18:24.094Z,87.62
2018-02-07T10:19:24.100Z,87.55
2018-02-07T10:20:24.085Z,87.88
2018-02-07T10:21:24.087Z,87.69
2018-02-07T10:22:24.094Z,88.12
2018-02-07T10:23:24.065Z,87.83
2018-02-07T10:24:24.121Z,87.16
2018-02-07T10:25:24.069Z,87.52
2018-02-07T10:26:24.090Z,86.69
2018-02-07T10:27:24.085Z,86.66
2018-02-07T10:28:24.080Z,86.75
2018-02-07T10:29:24.088Z,87.02
2018-02-07T10:30:24.093Z,87.04
2018-02-07T10:31:24.092Z,86.67
2018-02-07T10:32:24.074Z,86.41
2018-02-07T10:33:24.087Z,86.61
2018-02-07T10:34:24.054Z,87.34
2018-02-07T10:35:24.062Z,87.35
2018-02-07T10:36:24.104Z,86.91
2018-02-07T10:37:24.084Z,86.47
2018-02-07T10:38:24.095Z,86.08
2018-02-07T10:39:24.090Z,86.19
2018-02-07T10:40:24.086Z,86.07
2018-02-07T10:41:24.096Z,85.32
2018-02-07T10:42:24.085Z,84.89
2018-02-07T10:43:24.071Z,84.79
2018-02-07T10:44:24.113Z,84.9
2018-02-07T10:45:24.097Z,84.84
2018-02-07T10:46:24.066Z,84.3
2018-02-07T10:47:24.092Z,84.34
2018-02-07T10:48:24.115Z,84.3
2018-02-07T10:49:24.201Z,83.92
2018-02-07T10:50:24.130Z,84
2018-02-07T10:51:24.151Z,83.53
2018-02-07T10:52:24.145Z,84.14
2018-02-07T10:53:24.156Z,84.09
2018-02-07T10:54:24.157Z,83.74
2018-02-07T10:55:24.118Z,83.87
2018-02-07T10:56:24.128Z,84.47
2018-02-07T10:57:24.149Z,83.78
2018-02-07T10:58:24.216Z,84.16
2018-02-07T10:59:24.146Z,84.41
2018-02-07T11:00:24.172Z,84.12
2018-02-07T11:01:24.145Z,83.84
2018-02-07T11:02:24.167Z,84.04
2018-02-07T11:03:24.406Z,83.81
2018-02-07T11:04:24.148Z,83.63
2018-02-07T11:05:24.160Z,83.97
2018-02-07T11:06:24.163Z,82.76
2018-02-07T11:07:24.152Z,82.86
2018-02-07T11:08:24.153Z,83.46
2018-02-07T11:09:24.161Z,82.45
2018-02-07T11:10:24.143Z,82.66
2018-02-07T11:11:24.144Z,82.33
2018-02-07T11:12:24.137Z,82.26
2018-02-07T11:13:24.187Z,81.88
2018-02-07T11:14:24.121Z,82.23
2018-02-07T11:15:24.138Z,81.56
2018-02-07T11:16:24.123Z,81.6
2018-02-07T11:17:24.140Z,82.18
2018-02-07T11:18:24.146Z,81.99
2018-02-07T11:19:24.162Z,81.47
2018-02-07T11:20:23.938Z,81.65
2018-02-07T11:21:23.935Z,82.17
2018-02-07T11:22:23.931Z,81.95
2018-02-07T11:23:23.951Z,82.23
2018-02-07T11:24:23.931Z,82.33
2018-02-07T11:25:24.001Z,80.82
2018-02-07T11:26:23.954Z,80.74
2018-02-07T11:27:23.929Z,80.71
2018-02-07T11:28:23.968Z,80.25
2018-02-07T11:29:23.923Z,80.76
2018-02-07T11:30:23.918Z,80.37
2018-02-07T11:31:23.980Z,80
2018-02-07T11:32:23.943Z,80.26
2018-02-07T11:33:23.961Z,80.39
2018-02-07T11:34:23.921Z,80.33
2018-02-07T11:35:23.928Z,80.33
2018-02-07T11:36:23.938Z,79.66
2018-02-07T11:37:23.949Z,79.74
2018-02-07T11:38:23.920Z,79.45
2018-02-07T11:39:23.942Z,79.13
2018-02-07T11:40:23.964Z,79.16
2018-02-07T11:41:23.945Z,79.15
2018-02-07T11:42:23.918Z,78
2018-02-07T11:43:23.914Z,77.61
2018-02-07T11:44:23.941Z,77.92
2018-02-07T11:45:24.039Z,77.67
2018-02-07T11:46:23.934Z,77.92
2018-02-07T11:47:23.977Z,77.56
2018-02-07T11:48:23.944Z,77.27
2018-02-07T11:49:23.964Z,77.33
2018-02-07T11:50:23.974Z,76.89
2018-02-07T11:51:23.948Z,77.58
2018-02-07T11:52:23.951Z,76.73
2018-02-07T11:53:23.953Z,76.81
2018-02-07T11:54:23.983Z,76.61
2018-02-07T11:55:23.943Z,76.01
2018-02-07T11:56:23.957Z,74.45
2018-02-07T11:57:23.961Z,74.79
2018-02-07T11:58:23.952Z,74.08
2018-02-07T11:59:24.044Z,72.73
2018-02-07T12:00:23.973Z,72.87
2018-02-07T12:01:23.946Z,73.92
2018-02-07T12:02:23.946Z,74.3
2018-02-07T12:03:23.942Z,74.17
2018-02-07T12:04:23.985Z,74.5
2018-02-07T12:05:23.963Z,73.88
2018-02-07T12:06:23.944Z,73.55
2018-02-07T12:07:23.949Z,73.46
2018-02-07T12:08:23.965Z,73.68
2018-02-07T12:09:23.988Z,73.69
2018-02-07T12:10:23.969Z,73.03
2018-02-07T12:11:23.960Z,72.92
2018-02-07T12:12:23.982Z,73.02
2018-02-07T12:13:23.972Z,72.71
2018-02-07T12:14:23.997Z,71.94
2018-02-07T12:15:23.972Z,72.35
2018-02-07T12:16:24.018Z,72.07
2018-02-07T12:17:23.963Z,72.34
2018-02-07T12:18:23.947Z,72.77
2018-02-07T12:19:23.978Z,72.56
2018-02-07T12:20:23.960Z,72.32
2018-02-07T12:21:23.969Z,72.79
2018-02-07T12:22:24.809Z,71.93
2018-02-07T12:23:24.785Z,72.22
2018-02-07T12:24:24.831Z,72.39
2018-02-07T12:25:24.813Z,72.63
2018-02-07T12:26:24.816Z,72.46
2018-02-07T12:27:24.794Z,72.48
2018-02-07T12:28:24.821Z,72.52
2018-02-07T12:29:24.951Z,72.16
2018-02-07T12:30:24.797Z,72.42
2018-02-07T12:31:24.895Z,72.23
2018-02-07T12:32:24.791Z,72.52
2018-02-07T12:33:24.798Z,72.26
2018-02-07T12:34:24.795Z,72.06
2018-02-07T12:35:24.789Z,72.03
2018-02-07T12:36:24.787Z,72.54
2018-02-07T12:37:24.858Z,71.74
2018-02-07T12:38:24.829Z,71.5
2018-02-07T12:39:24.820Z,71.06
2018-02-07T12:40:24.790Z,71.2
2018-02-07T12:41:24.831Z,71.24
2018-02-07T12:42:24.789Z,70.96
2018-02-07T12:43:24.840Z,70.86
2018-02-07T12:44:24.792Z,71.05
2018-02-07T12:45:24.791Z,69.14
2018-02-07T12:46:24.807Z,69.66
2018-02-07T12:47:24.814Z,70.38
2018-02-07T12:48:24.809Z,69.6
2018-02-07T12:49:24.817Z,69.59
2018-02-07T12:50:24.817Z,69.36
2018-02-07T12:51:24.799Z,69.44
2018-02-07T12:52:24.804Z,69.37
2018-02-07T12:53:24.708Z,69.78
2018-02-07T12:54:24.726Z,69.77
2018-02-07T12:55:24.710Z,69.65
2018-02-07T12:56:24.707Z,69.65
2018-02-07T12:57:24.713Z,69.7
2018-02-07T12:58:24.752Z,69.54